createdAt,value
2018-12-22T00:04:38.690Z,79.45
2018-12-22T00:09:41.106Z,79.49
2018-12-22T00:14:43.595Z,79.04
2018-12-22T00:19:46.378Z,77.51
2018-12-22T00:24:48.840Z,76.10
2018-12-22T00:29:51.877Z,75.02
2018-12-22T00:34:54.343Z,74.21
2018-12-22T00:39:56.898Z,73.55
2018-12-22T00:45:00.174Z,71.82
2018-12-22T00:50:02.919Z,73.48
2018-12-22T00:55:05.989Z,73.82
2018-12-22T01:00:09.638Z,74.34
2018-12-22T01:05:12.235Z,74.74
2018-12-22T01:10:15.100Z,76.55
2018-12-22T01:15:17.905Z,77.28
2018-12-22T01:20:20.292Z,80.69
2018-12-22T01:25:23.070Z,82.57
2018-12-22T01:30:25.395Z,83.80
2018-12-22T01:35:28.859Z,84.44
2018-12-22T01:40:31.356Z,84.49
2018-12-22T01:45:33.799Z,84.60
2018-12-22T01:50:36.238Z,85.06
2018-12-22T01:55:39.329Z,84.96
2018-12-22T02:00:41.687Z,86.19
2018-12-22T02:05:44.924Z,86.18
2018-12-22T02:10:47.695Z,86.86
2018-12-22T02:15:50.269Z,86.83
2018-12-22T02:20:52.811Z,86.12
2018-12-22T02:25:56.518Z,84.84
2018-12-22T02:30:58.883Z,84.58
2018-12-22T02:36:01.278Z,83.74
2018-12-22T02:41:03.774Z,83.02
2018-12-22T02:46:07.082Z,82.88
2018-12-22T02:51:09.684Z,81.25
2018-12-22T02:56:12.189Z,80.45
2018-12-22T03:01:14.645Z,79.38
2018-12-22T03:06:17.038Z,78.27
2018-12-22T03:11:19.489Z,78.20
2018-12-22T03:16:21.926Z,77.32
2018-12-22T03:21:24.398Z,77.86
2018-12-22T03:26:27.379Z,77.58
2018-12-22T03:31:30.182Z,77.25
2018-12-22T03:36:32.637Z,77.52
2018-12-22T03:41:35.307Z,77.39
2018-12-22T03:46:37.778Z,76.44
2018-12-22T03:51:40.143Z,75.96
2018-12-22T03:56:42.604Z,74.23
2018-12-22T04:01:44.942Z,72.51
2018-12-22T04:06:48.249Z,72.76
2018-12-22T04:11:50.896Z,71.05
2018-12-22T04:16:53.489Z,70.72
2018-12-22T04:21:55.942Z,71.39
2018-12-22T04:26:58.338Z,70.68
2018-12-22T04:32:00.789Z,71.54
2018-12-22T04:37:03.258Z,71.43
2018-12-22T04:42:05.599Z,71.31
2018-12-22T04:47:08.011Z,71.35
2018-12-22T04:52:10.397Z,72.10
2018-12-22T04:57:13.068Z,71.93
2018-12-22T05:02:15.356Z,72.43
2018-12-22T05:07:17.662Z,72.76
2018-12-22T05:12:20.203Z,73.72
2018-12-22T05:17:22.613Z,74.08
2018-12-22T05:22:25.040Z,74.99
2018-12-22T05:27:27.878Z,75.51
2018-12-22T05:32:30.306Z,75.54
2018-12-22T05:37:33.396Z,75.20
2018-12-22T05:42:35.834Z,74.74
2018-12-22T05:47:38.195Z,74.58
2018-12-22T05:52:40.584Z,75.70
2018-12-22T05:57:43.004Z,75.60
2018-12-22T06:02:45.611Z,75.19
2018-12-22T06:07:48.137Z,74.31
2018-12-22T06:12:50.629Z,75.18
2018-12-22T06:17:53.073Z,74.96
2018-12-22T06:22:55.383Z,74.75
2018-12-22T06:27:57.863Z,75.32
2018-12-22T06:33:00.273Z,75.22
2018-12-22T06:38:02.929Z,74.02
2018-12-22T06:43:05.916Z,72.60
2018-12-22T06:48:08.208Z,73.44
2018-12-22T06:53:14.009Z,71.23
2018-12-22T06:58:16.902Z,69.04
2018-12-22T07:03:19.314Z,68.91
2018-12-22T07:08:21.893Z,68.71
2018-12-22T07:13:24.614Z,68.98
2018-12-22T07:18:27.005Z,69.82
2018-12-22T07:23:30.090Z,71.21
2018-12-22T07:28:32.549Z,71.37
2018-12-22T07:33:34.926Z,70.05
2018-12-22T07:38:38.646Z,69.71
2018-12-22T07:43:41.682Z,69.28
2018-12-22T07:48:44.230Z,69.31
2018-12-22T07:53:46.551Z,68.61
2018-12-22T07:58:49.218Z,69.40
2018-12-22T08:03:51.694Z,69.05
2018-12-22T08:08:53.997Z,67.56
2018-12-22T08:13:56.577Z,68.49
2018-12-22T08:18:58.996Z,67.07
2018-12-22T08:24:01.379Z,66.50
2018-12-22T08:29:03.804Z,64.99
2018-12-22T08:34:06.489Z,65.42
2018-12-22T08:39:09.287Z,64.96
2018-12-22T08:44:11.849Z,64.77
2018-12-22T08:49:14.223Z,62.96
2018-12-22T08:54:16.709Z,62.50
2018-12-22T08:59:20.438Z,62.88
2018-12-22T09:04:22.881Z,64.53
2018-12-22T09:09:25.315Z,64.60
2018-12-22T09:14:27.619Z,66.19
2018-12-22T09:19:29.885Z,66.67
2018-12-22T09:24:32.791Z,67.31
2018-12-22T09:29:36.238Z,66.63
2018-12-22T09:34:38.854Z,68.65
2018-12-22T09:40:02.697Z,73.24
2018-12-22T09:45:06.417Z,74.15
2018-12-22T09:50:12.122Z,75.09
2018-12-22T09:55:14.570Z,75.83
2018-12-22T10:00:17.192Z,78.98
2018-12-22T10:05:19.776Z,79.00
2018-12-22T10:10:22.154Z,79.67
2018-12-22T10:15:25.335Z,79.22
2018-12-22T10:20:27.753Z,78.47
2018-12-22T10:25:30.368Z,77.01
2018-12-22T10:30:33.101Z,79.11
2018-12-22T10:35:35.527Z,79.53
2018-12-22T10:40:38.193Z,79.28
2018-12-22T10:45:40.554Z,78.87
2018-12-22T10:50:43.762Z,78.25
2018-12-22T10:55:46.217Z,77.86
2018-12-22T11:00:48.657Z,78.07
2018-12-22T11:05:51.218Z,78.49
2018-12-22T11:10:53.703Z,77.36
2018-12-22T11:15:56.111Z,76.88
2018-12-22T11:20:58.507Z,76.03
2018-12-22T11:26:00.911Z,75.79
2018-12-22T11:31:03.390Z,75.11
2018-12-22T11:36:05.885Z,75.23
2018-12-22T11:41:08.413Z,73.94
2018-12-22T11:46:10.836Z,72.17
2018-12-22T11:51:13.454Z,70.49
2018-12-22T11:56:15.869Z,67.34
2018-12-22T12:01:18.586Z,66.25
2018-12-22T12:06:21.003Z,65.01
2018-12-22T12:11:23.546Z,63.22
2018-12-22T12:16:43.821Z,63.80
2018-12-22T12:21:46.391Z,63.63
2018-12-22T12:26:48.868Z,62.97
2018-12-22T12:31:52.285Z,63.86
2018-12-22T12:36:55.122Z,63.66
2018-12-22T12:41:57.921Z,63.41
2018-12-22T12:47:00.635Z,63.17
2018-12-22T12:52:03.156Z,63.73
2018-12-22T12:57:05.734Z,62.20
2018-12-22T13:02:09.103Z,63.20
2018-12-22T13:07:11.687Z,63.07
2018-12-22T13:12:17.858Z,60.89
2018-12-22T13:17:21.182Z,61.74
2018-12-22T13:22:23.566Z,60.11
2018-12-22T13:27:26.616Z,60.51
2018-12-22T13:32:29.065Z,61.59
2018-12-22T13:37:31.488Z,60.74
2018-12-22T13:42:34.265Z,59.93
2018-12-22T13:47:37.082Z,59.57
2018-12-22T13:52:40.223Z,59.28
2018-12-22T13:57:43.866Z,59.43
2018-12-22T14:02:46.263Z,59.50
2018-12-22T14:07:48.893Z,60.15
2018-12-22T14:12:51.506Z,60.51
2018-12-22T14:19:00.250Z,60.83
2018-12-22T14:24:11.587Z,60.47
2018-12-22T14:29:14.065Z,60.51
2018-12-22T14:34:24.210Z,60.42
2018-12-22T14:39:26.622Z,61.25
2018-12-22T14:44:29.037Z,60.42
2018-12-22T14:49:31.426Z,62.21
2018-12-22T14:54:34.062Z,62.16
2018-12-22T14:59:37.247Z,62.72
2018-12-22T15:04:39.771Z,63.20
2018-12-22T15:09:43.097Z,64.55
2018-12-22T15:14:45.546Z,64.15
2018-12-22T15:19:47.943Z,64.07
2018-12-22T15:24:50.594Z,64.27
2018-12-22T15:29:52.970Z,65.42
2018-12-22T15:34:56.085Z,66.73
2018-12-22T15:39:58.485Z,67.73
2018-12-22T15:45:01.022Z,68.09
2018-12-22T15:50:04.502Z,67.96
2018-12-22T15:55:07.614Z,68.99
2018-12-22T16:00:11.438Z,68.77
2018-12-22T16:05:13.761Z,68.96
2018-12-22T16:10:16.353Z,69.18
2018-12-22T16:15:19.701Z,69.61
2018-12-22T16:20:22.045Z,69.91
2018-12-22T16:25:24.576Z,70.50
2018-12-22T16:30:31.234Z,71.21
2018-12-22T16:35:34.506Z,71.47
2018-12-22T16:40:37.631Z,71.78
2018-12-22T16:45:44.511Z,72.31
2018-12-22T16:50:47.216Z,72.56
2018-12-22T16:55:49.958Z,73.24
2018-12-22T17:00:59.329Z,73.87
2018-12-22T17:06:03.541Z,73.75
2018-12-22T17:11:07.220Z,73.89
2018-12-22T17:16:10.535Z,74.22
2018-12-22T17:21:23.409Z,74.51
2018-12-22T17:26:28.073Z,74.45
2018-12-22T17:31:30.587Z,74.75
2018-12-22T17:36:32.898Z,75.14
2018-12-22T17:41:35.240Z,75.70
2018-12-22T17:46:37.877Z,75.74
2018-12-22T17:51:40.164Z,75.37
2018-12-22T17:56:42.555Z,75.43
2018-12-22T18:01:44.949Z,75.48
2018-12-22T18:06:47.289Z,75.45
2018-12-22T18:11:50.246Z,75.72
2018-12-22T18:16:52.584Z,75.93
2018-12-22T18:21:55.668Z,76.35
2018-12-22T18:26:58.600Z,76.45
2018-12-22T18:32:01.187Z,76.41
2018-12-22T18:37:03.581Z,77.35
2018-12-22T18:42:05.904Z,77.58
2018-12-22T18:47:08.346Z,77.76
2018-12-22T18:52:11.635Z,77.76
2018-12-22T18:57:14.054Z,77.73
2018-12-22T19:02:16.396Z,78.12
2018-12-22T19:07:20.287Z,78.29
2018-12-22T19:12:22.894Z,78.54
2018-12-22T19:17:25.882Z,78.29
2018-12-22T19:22:28.184Z,78.58
2018-12-22T19:27:30.494Z,78.34
2018-12-22T19:32:32.856Z,78.20
2018-12-22T19:37:35.304Z,78.11
2018-12-22T19:42:37.856Z,78.58
2018-12-22T19:47:40.208Z,77.96
2018-12-22T19:52:42.631Z,78.43
2018-12-22T19:57:44.928Z,78.36
2018-12-22T20:02:47.507Z,77.93
2018-12-22T20:07:50.484Z,77.64
2018-12-22T20:12:52.791Z,77.03
2018-12-22T20:17:55.124Z,76.91
2018-12-22T20:22:57.489Z,76.04
2018-12-22T20:28:00.037Z,76.24
2018-12-22T20:33:02.729Z,76.15
2018-12-22T20:38:05.071Z,76.24
2018-12-22T20:43:07.677Z,76.97
2018-12-22T20:48:10.283Z,76.96
2018-12-22T20:53:13.499Z,76.87
2018-12-22T20:58:15.920Z,77.30
2018-12-22T21:03:20.530Z,76.65
2018-12-22T21:08:22.946Z,76.74
2018-12-22T21:13:25.314Z,76.28
2018-12-22T21:18:28.613Z,74.97
2018-12-22T21:23:31.232Z,74.44
2018-12-22T21:28:33.850Z,73.41
2018-12-22T21:33:36.374Z,73.38
2018-12-22T21:38:39.438Z,73.15
2018-12-22T21:43:41.792Z,73.03
2018-12-22T21:48:44.051Z,73.76
2018-12-22T21:53:46.756Z,73.24
2018-12-22T21:58:49.098Z,73.23
2018-12-22T22:03:51.694Z,73.62
2018-12-22T22:08:54.719Z,73.71
2018-12-22T22:13:57.109Z,72.63
2018-12-22T22:19:00.722Z,72.91
2018-12-22T22:24:03.335Z,72.42
2018-12-22T22:29:05.742Z,72.88
2018-12-22T22:34:08.081Z,73.41
2018-12-22T22:39:10.563Z,73.56
2018-12-22T22:44:13.545Z,74.21
2018-12-22T22:49:18.024Z,75.10
2018-12-22T22:54:20.485Z,74.95
2018-12-22T22:59:22.891Z,75.03
2018-12-22T23:04:25.280Z,75.05
2018-12-22T23:09:27.609Z,75.62
2018-12-22T23:14:29.978Z,75.04
2018-12-22T23:19:32.527Z,74.98
2018-12-22T23:24:35.114Z,74.71
2018-12-22T23:29:37.594Z,74.54
2018-12-22T23:34:40.211Z,74.56
2018-12-22T23:39:42.647Z,74.64
2018-12-22T23:44:45.100Z,75.15
2018-12-22T23:49:47.468Z,76.19
2018-12-22T23:54:50.597Z,76.66
2018-12-22T23:59:53.041Z,77.12
